17:33
Airports
History
Links
Donate
Help keep this website running!
PayPal
Bitcoin
This page is community maintained. The information is intended for PC simulator navigation or reference.
Always use approved charts for navigation.
LILM
Casale Monferrato
Casale Monferrato (LILM)
Casale Monferrato, Piemonte, Italy (15033)
4
Lat/Lng:45° 6' 38.01" N / 8° 27' 23" E
45.110558 / 8.456389
Elevation:378'ft / 115mMSL
ID / ICAO:LILM
Runways:1
Longest:36-18
Dirt 1,094m / 3,591ft
Nearby Weather16:55 GMT 2018-02-19
Nearby weather at LIMN, CAMERI located 30.8 nautical miles from LILM
Altimeter: 29.97
Visibility: 6.2 statute miles
Wind: 4 knots (from 180°)
Temp: 6°c / 43°f
Humidity: 60.7%

METAR: LIMN 191655Z 18004KT 9999 SCT025 06/M01 Q1015 RMK BKN SCT080 VIS MIN 9999 BLU

(Powered by phpweather)
Nearby VORs <50NM
Nearby NDBs
Runway 36 / 18
Dimensions:1094.4 x 60.1m 3591' x 197'ft
Surface:Dirt
Runway 36 [A]Runway 18 [B]
Heading:001°TH 181°TH
Lat:
Lng:
45° 6' 20.2"N
8° 27' 22.56"E
45° 6' 55.82"N
8° 27' 23.44"E
User Notes and Comments
45° 6' 38.01" N / 8° 27' 23" E
Distance To
Airport ID:
Nearby Airports
(C) Vercelli 13.9 NM
LILI N 352°
4 Alessandria 15.3 NM
LILA SSE 147°
4 Novi Ligure 28.0 NM
LIMR SE 144°
(U) VOGHERA 29.5 NM
LILH ESE 111°
(C) CAMERI 30.8 NM
LIMN ( WX ) NNE 19°
(U) BIELLA CERRIONE 31.7 NM
LILE NNW 327°
(C) Milano Malpensa 38.3 NM
LIMC ( WX ) NNE 20°
VFR Chart
Flight Planning at SkyVector.com